createdAt,value
2023-01-13T00:01:25.062Z,10.08
2023-01-13T00:03:51.673Z,10.08
2023-01-13T00:06:21.603Z,10.09
2023-01-13T00:08:48.662Z,10.10
2023-01-13T00:11:15.405Z,10.11
2023-01-13T00:13:42.072Z,10.11
2023-01-13T00:16:11.404Z,10.12
2023-01-13T00:18:38.492Z,10.12
2023-01-13T00:21:07.153Z,10.14
2023-01-13T00:23:35.727Z,10.14
2023-01-13T00:26:04.998Z,10.14
2023-01-13T00:28:31.549Z,10.13
2023-01-13T00:31:05.390Z,10.13
2023-01-13T00:33:32.078Z,10.12
2023-01-13T00:35:59.864Z,10.13
2023-01-13T00:38:27.185Z,10.12
2023-01-13T00:40:59.318Z,10.12
2023-01-13T00:43:26.734Z,10.12
2023-01-13T00:45:53.577Z,10.13
2023-01-13T00:48:21.365Z,10.12
2023-01-13T00:50:55.014Z,10.14
2023-01-13T00:53:21.996Z,10.13
2023-01-13T00:55:48.594Z,10.13
2023-01-13T00:58:16.510Z,10.13
2023-01-13T01:00:43.193Z,10.13
2023-01-13T01:03:09.810Z,10.13
2023-01-13T01:05:36.389Z,10.14
2023-01-13T01:08:02.950Z,10.14
2023-01-13T01:10:29.508Z,10.14
2023-01-13T01:12:56.049Z,10.15
2023-01-13T01:15:23.996Z,10.15
2023-01-13T01:17:50.568Z,10.18
2023-01-13T01:20:17.290Z,10.18
2023-01-13T01:22:43.834Z,10.17
2023-01-13T01:25:10.386Z,10.19
2023-01-13T01:27:36.918Z,10.20
2023-01-13T01:30:04.102Z,10.20
2023-01-13T01:32:33.927Z,10.21
2023-01-13T01:35:00.508Z,10.22
2023-01-13T01:37:27.108Z,10.22
2023-01-13T01:39:53.668Z,10.22
2023-01-13T01:42:20.346Z,10.22
2023-01-13T01:45:01.388Z,10.22
2023-01-13T01:47:29.449Z,10.22
2023-01-13T01:49:58.394Z,10.22
2023-01-13T01:52:29.547Z,10.23
2023-01-13T01:55:01.738Z,10.22
2023-01-13T01:57:32.769Z,10.23
2023-01-13T02:00:01.088Z,10.23
2023-01-13T02:02:28.205Z,10.23
2023-01-13T02:04:54.922Z,10.23
2023-01-13T02:07:25.973Z,10.22
2023-01-13T02:09:53.878Z,10.22
2023-01-13T02:12:20.657Z,10.22
2023-01-13T02:14:47.278Z,10.21
2023-01-13T02:17:30.288Z,10.21
2023-01-13T02:20:34.938Z,10.21
2023-01-13T02:23:34.957Z,10.20
2023-01-13T02:26:30.076Z,10.20
2023-01-13T02:29:09.851Z,10.19
2023-01-13T02:31:41.989Z,10.18
2023-01-13T02:34:15.036Z,10.18
2023-01-13T02:36:50.250Z,10.17
2023-01-13T02:39:24.953Z,10.17
2023-01-13T02:41:56.907Z,10.16
2023-01-13T02:44:28.530Z,10.16
2023-01-13T02:47:02.945Z,10.15
2023-01-13T02:49:34.383Z,10.15
2023-01-13T02:52:08.194Z,10.14
2023-01-13T02:54:37.276Z,10.13
2023-01-13T02:57:06.196Z,10.13
2023-01-13T02:59:33.799Z,10.13
2023-01-13T03:02:02.542Z,10.12
2023-01-13T03:04:51.148Z,10.09
2023-01-13T03:07:53.400Z,10.07
2023-01-13T03:10:29.654Z,10.05
2023-01-13T03:13:06.627Z,10.03
2023-01-13T03:15:42.662Z,10.02
2023-01-13T03:18:19.519Z,10.03
2023-01-13T03:20:56.037Z,10.03
2023-01-13T03:23:30.827Z,10.01
2023-01-13T03:26:08.316Z,9.99
2023-01-13T03:28:41.085Z,10.01
2023-01-13T03:31:11.956Z,10.00
2023-01-13T03:33:43.668Z,10.01
2023-01-13T03:36:12.801Z,9.99
2023-01-13T03:38:43.413Z,9.99
2023-01-13T03:41:15.580Z,10.01
2023-01-13T03:43:47.412Z,9.99
2023-01-13T03:46:19.551Z,10.01
2023-01-13T03:48:52.796Z,10.01
2023-01-13T03:51:23.659Z,9.99
2023-01-13T03:53:55.426Z,10.00
2023-01-13T03:56:27.988Z,10.00
2023-01-13T03:58:55.022Z,10.01
2023-01-13T04:01:25.013Z,10.01
2023-01-13T04:03:57.295Z,10.02
2023-01-13T04:06:29.969Z,10.01
2023-01-13T04:09:03.075Z,10.01
2023-01-13T04:11:35.373Z,10.00
2023-01-13T04:14:03.673Z,10.01
2023-01-13T04:16:31.077Z,10.01
2023-01-13T04:18:59.012Z,9.99
2023-01-13T04:21:26.414Z,9.97
2023-01-13T04:23:52.983Z,9.96
2023-01-13T04:26:19.543Z,9.94
2023-01-13T04:28:46.158Z,9.92
2023-01-13T04:31:12.742Z,9.91
2023-01-13T04:33:39.308Z,9.90
2023-01-13T04:36:07.896Z,9.89
2023-01-13T04:38:34.465Z,9.88
2023-01-13T04:41:01.006Z,9.86
2023-01-13T04:43:27.571Z,9.84
2023-01-13T04:45:54.166Z,9.84
2023-01-13T04:48:20.724Z,9.85
2023-01-13T04:50:47.283Z,9.88
2023-01-13T04:53:15.261Z,9.89
2023-01-13T04:55:41.802Z,9.92
2023-01-13T04:58:10.040Z,9.95
2023-01-13T05:00:37.483Z,9.98
2023-01-13T05:03:04.546Z,10.01
2023-01-13T05:05:31.455Z,10.03
2023-01-13T05:07:57.986Z,10.06
2023-01-13T05:10:26.213Z,10.08
2023-01-13T05:12:52.744Z,10.08
2023-01-13T05:15:19.371Z,10.09
2023-01-13T05:17:46.255Z,10.07
2023-01-13T05:20:13.189Z,10.03
2023-01-13T05:22:39.805Z,10.01
2023-01-13T05:25:08.783Z,9.97
2023-01-13T05:27:36.840Z,9.92
2023-01-13T05:30:04.473Z,9.89
2023-01-13T05:32:31.106Z,9.87
2023-01-13T05:34:57.698Z,9.82
2023-01-13T05:37:24.901Z,9.77
2023-01-13T05:39:51.487Z,9.74
2023-01-13T05:42:18.045Z,9.72
2023-01-13T05:44:45.938Z,9.69
2023-01-13T05:47:12.444Z,9.68
2023-01-13T05:49:40.919Z,9.68
2023-01-13T05:52:08.694Z,9.68
2023-01-13T05:54:35.242Z,9.69
2023-01-13T05:57:01.759Z,9.69
2023-01-13T05:59:28.293Z,9.70
2023-01-13T06:01:56.168Z,9.72
2023-01-13T06:04:22.759Z,9.72
2023-01-13T06:06:49.308Z,9.73
2023-01-13T06:09:16.014Z,9.72
2023-01-13T06:11:42.553Z,9.74
2023-01-13T06:14:09.153Z,9.73
2023-01-13T06:16:35.722Z,9.74
2023-01-13T06:19:03.616Z,9.72
2023-01-13T06:21:32.401Z,9.71
2023-01-13T06:23:59.751Z,9.70
2023-01-13T06:26:29.829Z,9.69
2023-01-13T06:28:56.362Z,9.69
2023-01-13T06:31:23.831Z,9.67
2023-01-13T06:33:55.604Z,9.68
2023-01-13T06:36:27.250Z,9.69
2023-01-13T06:38:57.944Z,9.70
2023-01-13T06:41:27.142Z,9.70
2023-01-13T06:43:53.688Z,9.70
2023-01-13T06:46:20.216Z,9.68
2023-01-13T06:48:46.729Z,9.68
2023-01-13T06:51:13.259Z,9.66
2023-01-13T06:53:41.288Z,9.64
2023-01-13T06:56:08.000Z,9.64
2023-01-13T06:58:34.614Z,9.63
2023-01-13T07:01:01.338Z,9.66
2023-01-13T07:03:27.980Z,9.67
2023-01-13T07:05:55.585Z,9.67
2023-01-13T07:08:22.701Z,9.66
2023-01-13T07:10:51.018Z,9.64
2023-01-13T07:13:17.573Z,9.62
2023-01-13T07:15:52.947Z,9.62
2023-01-13T07:18:19.490Z,9.62
2023-01-13T07:20:52.057Z,9.62
2023-01-13T07:23:18.593Z,9.63
2023-01-13T07:25:45.140Z,9.63
2023-01-13T07:28:13.056Z,9.64
2023-01-13T07:30:40.160Z,9.62
2023-01-13T07:33:06.695Z,9.62
2023-01-13T07:35:33.275Z,9.61
2023-01-13T07:37:59.787Z,9.60
2023-01-13T07:40:26.355Z,9.61
2023-01-13T07:42:52.916Z,9.61
2023-01-13T07:45:20.788Z,9.58
2023-01-13T07:47:51.614Z,9.56
2023-01-13T07:50:18.300Z,9.54
2023-01-13T07:52:44.831Z,9.53
2023-01-13T07:55:11.463Z,9.53
2023-01-13T07:57:37.970Z,9.54
2023-01-13T08:00:05.450Z,9.54
2023-01-13T08:02:33.428Z,9.54
2023-01-13T08:05:00.011Z,9.54
2023-01-13T08:07:26.505Z,9.56
2023-01-13T08:09:53.018Z,9.57
2023-01-13T08:12:19.523Z,9.59
2023-01-13T08:14:46.066Z,9.62
2023-01-13T08:17:12.625Z,9.64
2023-01-13T08:19:40.841Z,9.66
2023-01-13T08:22:07.373Z,9.68
2023-01-13T08:24:33.899Z,9.69
2023-01-13T08:27:00.453Z,9.70
2023-01-13T08:29:26.991Z,9.70
2023-01-13T08:31:53.568Z,9.71
2023-01-13T08:34:20.188Z,9.73
2023-01-13T08:36:49.211Z,9.75
2023-01-13T08:39:15.821Z,9.76
2023-01-13T08:41:43.349Z,9.75
2023-01-13T08:44:09.877Z,9.74
2023-01-13T08:46:36.968Z,9.74
2023-01-13T08:49:03.908Z,9.72
2023-01-13T08:51:30.556Z,9.71
2023-01-13T08:53:58.530Z,9.70
2023-01-13T08:56:25.103Z,9.71
2023-01-13T08:58:52.676Z,9.71
2023-01-13T09:01:22.513Z,9.71
2023-01-13T09:03:49.371Z,9.69
2023-01-13T09:06:15.931Z,9.69
2023-01-13T09:08:43.331Z,9.68
2023-01-13T09:11:18.112Z,9.69
2023-01-13T09:13:44.652Z,9.67
2023-01-13T09:16:11.203Z,9.68
2023-01-13T09:18:37.836Z,9.68
2023-01-13T09:21:04.897Z,9.70
2023-01-13T09:23:31.451Z,9.70
2023-01-13T09:25:58.088Z,9.72
2023-01-13T09:28:25.974Z,9.75
2023-01-13T09:30:52.556Z,9.76
2023-01-13T09:33:19.128Z,9.80
2023-01-13T09:35:45.727Z,9.86
2023-01-13T09:38:12.262Z,9.89
2023-01-13T09:40:40.683Z,9.91
2023-01-13T09:43:17.163Z,9.89
2023-01-13T09:45:50.553Z,9.90
2023-01-13T09:48:18.904Z,9.92
2023-01-13T09:50:55.118Z,10.01
2023-01-13T09:53:25.475Z,10.09
2023-01-13T09:55:52.026Z,10.15
2023-01-13T09:58:19.362Z,10.23
2023-01-13T10:00:55.942Z,10.30
2023-01-13T10:03:26.002Z,10.34
2023-01-13T10:05:58.005Z,10.35
2023-01-13T10:08:27.628Z,10.39
2023-01-13T10:10:56.231Z,10.44
2023-01-13T10:13:25.192Z,10.48
2023-01-13T10:16:22.840Z,10.50
2023-01-13T10:19:02.743Z,10.52
2023-01-13T10:21:51.378Z,10.52
2023-01-13T10:24:26.008Z,10.47
2023-01-13T10:27:02.235Z,10.43
2023-01-13T10:29:30.936Z,10.40
2023-01-13T10:32:00.136Z,10.36
2023-01-13T10:34:28.069Z,10.31
2023-01-13T10:36:56.992Z,10.28
2023-01-13T10:39:23.590Z,10.26
2023-01-13T10:42:01.358Z,10.24
2023-01-13T10:44:28.044Z,10.20
2023-01-13T10:46:56.604Z,10.20
2023-01-13T10:49:33.097Z,10.20
2023-01-13T10:52:00.556Z,10.21
2023-01-13T10:54:27.186Z,10.22
2023-01-13T10:57:18.562Z,10.23
2023-01-13T10:59:45.202Z,10.25
2023-01-13T11:02:25.893Z,10.30
2023-01-13T11:05:09.212Z,10.38
2023-01-13T11:07:38.645Z,10.42
2023-01-13T11:10:21.996Z,10.45
2023-01-13T11:12:59.684Z,10.47
2023-01-13T11:15:38.794Z,10.51
2023-01-13T11:18:13.437Z,10.54
2023-01-13T11:20:45.937Z,10.54
2023-01-13T11:23:18.626Z,10.56
2023-01-13T11:25:49.448Z,10.57
2023-01-13T11:28:35.779Z,10.60
2023-01-13T11:31:10.173Z,10.60
2023-01-13T11:33:41.525Z,10.60
2023-01-13T11:36:14.106Z,10.62
2023-01-13T11:38:49.360Z,10.62
2023-01-13T11:41:24.868Z,10.63
2023-01-13T11:43:55.256Z,10.63
2023-01-13T11:46:25.741Z,10.64
2023-01-13T11:48:52.583Z,10.64
2023-01-13T11:51:32.831Z,10.64
2023-01-13T11:54:18.851Z,10.66
2023-01-13T11:57:04.114Z,10.67
2023-01-13T12:00:00.666Z,10.67
2023-01-13T12:02:47.478Z,10.68
2023-01-13T12:05:23.041Z,10.71
2023-01-13T12:08:02.528Z,10.70
2023-01-13T12:10:44.217Z,10.72
2023-01-13T12:13:22.163Z,10.72
2023-01-13T12:16:14.779Z,10.73
2023-01-13T12:19:15.161Z,10.74
2023-01-13T12:21:58.087Z,10.76
2023-01-13T12:24:31.408Z,10.80
2023-01-13T12:27:02.694Z,10.83
2023-01-13T12:29:32.766Z,10.84
2023-01-13T12:32:01.764Z,10.81
2023-01-13T12:34:50.338Z,10.79
2023-01-13T12:37:25.876Z,10.78
2023-01-13T12:40:15.361Z,10.77
2023-01-13T12:42:48.526Z,10.74
2023-01-13T12:45:26.837Z,10.72
2023-01-13T12:47:53.759Z,10.71
2023-01-13T12:50:42.168Z,10.72
2023-01-13T12:53:38.874Z,10.76
2023-01-13T12:56:39.399Z,10.81
2023-01-13T12:59:42.231Z,10.86
2023-01-13T13:02:28.092Z,10.87
2023-01-13T13:04:56.606Z,10.89
2023-01-13T13:07:32.659Z,10.88
2023-01-13T13:10:02.139Z,10.86
2023-01-13T13:12:53.019Z,10.82
2023-01-13T13:15:21.278Z,10.79
2023-01-13T13:18:22.535Z,10.77
2023-01-13T13:20:55.714Z,10.74
2023-01-13T13:23:44.829Z,10.73
2023-01-13T13:26:18.312Z,10.72
2023-01-13T13:28:49.630Z,10.69
2023-01-13T13:31:28.237Z,10.70
2023-01-13T13:34:13.928Z,10.68
2023-01-13T13:36:56.904Z,10.65
2023-01-13T13:39:26.541Z,10.65
2023-01-13T13:42:02.382Z,10.63
2023-01-13T13:44:33.293Z,10.62
2023-01-13T13:47:02.452Z,10.59
2023-01-13T13:49:38.245Z,10.55
2023-01-13T13:52:08.845Z,10.52
2023-01-13T13:54:35.714Z,10.47
2023-01-13T13:57:02.327Z,10.45
2023-01-13T13:59:30.292Z,10.44
2023-01-13T14:01:59.507Z,10.40
2023-01-13T14:04:27.300Z,10.39
2023-01-13T14:06:55.737Z,10.38
2023-01-13T14:09:23.997Z,10.35
2023-01-13T14:11:59.954Z,10.32
2023-01-13T14:14:26.606Z,10.30
2023-01-13T14:16:54.774Z,10.29
2023-01-13T14:19:27.001Z,10.27
2023-01-13T14:21:53.981Z,10.24
2023-01-13T14:24:20.632Z,10.22
2023-01-13T14:26:47.161Z,10.21
2023-01-13T14:29:18.084Z,10.20
2023-01-13T14:31:45.258Z,10.19
2023-01-13T14:34:32.279Z,10.18
2023-01-13T14:36:59.828Z,10.15
2023-01-13T14:39:35.103Z,10.14
2023-01-13T14:42:01.948Z,10.12
2023-01-13T14:44:31.194Z,10.12
2023-01-13T14:47:00.428Z,10.10
2023-01-13T14:49:34.085Z,10.10
2023-01-13T14:52:07.528Z,10.08
2023-01-13T14:54:51.564Z,10.06
2023-01-13T14:57:25.727Z,10.06
2023-01-13T14:59:59.136Z,10.04
2023-01-13T15:02:47.346Z,10.01
2023-01-13T15:05:39.250Z,9.98
2023-01-13T15:08:22.697Z,9.96
2023-01-13T15:10:51.999Z,9.94
2023-01-13T15:13:29.527Z,9.94
2023-01-13T15:15:58.403Z,9.91
2023-01-13T15:18:25.071Z,9.90
2023-01-13T15:20:53.140Z,9.88
2023-01-13T15:23:20.470Z,9.85
2023-01-13T15:25:47.833Z,9.83
2023-01-13T15:28:17.212Z,9.82
2023-01-13T15:30:43.845Z,9.81
2023-01-13T15:33:12.856Z,9.79
2023-01-13T15:35:42.659Z,9.78
2023-01-13T15:38:12.311Z,9.75
2023-01-13T15:40:39.210Z,9.74
2023-01-13T15:43:05.807Z,9.71
2023-01-13T15:45:34.361Z,9.69
2023-01-13T15:48:02.510Z,9.67
2023-01-13T15:50:29.027Z,9.64
2023-01-13T15:52:55.508Z,9.63
2023-01-13T15:55:23.701Z,9.62
2023-01-13T15:57:50.521Z,9.61
2023-01-13T16:00:19.302Z,9.60
2023-01-13T16:02:46.244Z,9.58
2023-01-13T16:05:13.070Z,9.56
2023-01-13T16:07:39.729Z,9.53
2023-01-13T16:10:15.656Z,9.52
2023-01-13T16:12:43.643Z,9.51
2023-01-13T16:15:13.040Z,9.51
2023-01-13T16:17:40.117Z,9.50
2023-01-13T16:20:12.971Z,9.49
2023-01-13T16:22:39.463Z,9.48
2023-01-13T16:25:06.839Z,9.48
2023-01-13T16:27:33.497Z,9.45
2023-01-13T16:30:01.500Z,9.43
2023-01-13T16:32:28.036Z,9.42
2023-01-13T16:34:54.660Z,9.40
2023-01-13T16:37:23.787Z,9.38
2023-01-13T16:39:50.995Z,9.38
2023-01-13T16:42:17.629Z,9.37
2023-01-13T16:44:44.191Z,9.36
2023-01-13T16:47:16.479Z,9.37
2023-01-13T16:49:43.063Z,9.35
2023-01-13T16:52:09.851Z,9.35
2023-01-13T16:54:36.519Z,9.33
2023-01-13T16:57:03.264Z,9.33
2023-01-13T16:59:29.795Z,9.33
2023-01-13T17:01:56.365Z,9.31
2023-01-13T17:04:24.451Z,9.32
2023-01-13T17:06:55.678Z,9.33
2023-01-13T17:09:23.877Z,9.32
2023-01-13T17:11:54.039Z,9.32
2023-01-13T17:14:21.223Z,9.31
2023-01-13T17:16:48.078Z,9.31
2023-01-13T17:19:14.703Z,9.30
2023-01-13T17:21:42.695Z,9.27
2023-01-13T17:24:09.767Z,9.25
2023-01-13T17:26:38.068Z,9.23
2023-01-13T17:29:06.657Z,9.22
2023-01-13T17:31:35.118Z,9.19
2023-01-13T17:34:02.021Z,9.16
2023-01-13T17:36:29.136Z,9.15
2023-01-13T17:38:57.384Z,9.14
2023-01-13T17:41:24.731Z,9.12
2023-01-13T17:43:52.093Z,9.11
2023-01-13T17:46:19.906Z,9.11
2023-01-13T17:48:46.776Z,9.10
2023-01-13T17:51:14.818Z,9.08
2023-01-13T17:53:41.424Z,9.08
2023-01-13T17:56:10.378Z,9.06
2023-01-13T17:58:37.101Z,9.04
2023-01-13T18:01:07.383Z,9.04
2023-01-13T18:03:34.401Z,9.02
2023-01-13T18:06:02.971Z,9.02
2023-01-13T18:08:29.518Z,9.02
2023-01-13T18:10:55.985Z,9.01
2023-01-13T18:13:23.926Z,9.00
2023-01-13T18:15:59.612Z,8.97
2023-01-13T18:18:26.252Z,8.96
2023-01-13T18:20:53.516Z,8.94
2023-01-13T18:23:20.527Z,8.94
2023-01-13T18:25:47.509Z,8.94
2023-01-13T18:28:14.112Z,8.94
2023-01-13T18:30:42.228Z,8.95
2023-01-13T18:33:08.746Z,8.95
2023-01-13T18:35:38.250Z,8.96
2023-01-13T18:38:04.802Z,8.95
2023-01-13T18:40:31.294Z,8.95
2023-01-13T18:42:57.785Z,8.96
2023-01-13T18:45:26.474Z,8.94
2023-01-13T18:47:56.491Z,8.94
2023-01-13T18:50:23.585Z,8.94
2023-01-13T18:52:50.596Z,8.94
2023-01-13T18:55:17.615Z,8.94
2023-01-13T18:57:44.137Z,8.93
2023-01-13T19:00:12.694Z,8.93
2023-01-13T19:02:39.418Z,8.93
2023-01-13T19:05:07.967Z,8.92
2023-01-13T19:07:34.501Z,8.91
2023-01-13T19:10:01.211Z,8.92
2023-01-13T19:12:27.807Z,8.92
2023-01-13T19:14:55.055Z,8.92
2023-01-13T19:17:23.359Z,8.91
2023-01-13T19:19:51.699Z,8.92
2023-01-13T19:22:21.334Z,8.93
2023-01-13T19:24:47.935Z,8.93
2023-01-13T19:27:16.211Z,8.94
2023-01-13T19:29:50.782Z,8.93
2023-01-13T19:32:19.274Z,8.95
2023-01-13T19:34:46.016Z,8.94
2023-01-13T19:37:12.574Z,8.94
2023-01-13T19:39:40.698Z,8.93
2023-01-13T19:42:07.235Z,8.95
2023-01-13T19:44:34.342Z,8.94
2023-01-13T19:47:00.935Z,8.93
2023-01-13T19:49:27.543Z,8.92
2023-01-13T19:51:54.135Z,8.91
2023-01-13T19:54:20.671Z,8.88
2023-01-13T19:56:48.781Z,8.86
2023-01-13T19:59:15.353Z,8.85
2023-01-13T20:01:42.139Z,8.84
2023-01-13T20:04:08.717Z,8.83
2023-01-13T20:06:35.297Z,8.82
2023-01-13T20:09:01.856Z,8.81
2023-01-13T20:11:28.367Z,8.80
2023-01-13T20:13:56.357Z,8.79
2023-01-13T20:16:23.042Z,8.77
2023-01-13T20:18:49.669Z,8.76
2023-01-13T20:21:16.169Z,8.76
2023-01-13T20:23:43.060Z,8.75
2023-01-13T20:26:09.670Z,8.74
2023-01-13T20:28:36.641Z,8.73
2023-01-13T20:31:06.853Z,8.72
2023-01-13T20:33:33.425Z,8.72
2023-01-13T20:35:59.952Z,8.69
2023-01-13T20:38:26.531Z,8.68
2023-01-13T20:41:02.478Z,8.68
2023-01-13T20:43:29.019Z,8.67
2023-01-13T20:45:55.558Z,8.63
2023-01-13T20:48:23.494Z,8.61
2023-01-13T20:50:53.522Z,8.60
2023-01-13T20:53:20.169Z,8.59
2023-01-13T20:55:46.669Z,8.58
2023-01-13T20:58:13.168Z,8.57
2023-01-13T21:00:39.750Z,8.58
2023-01-13T21:03:06.285Z,8.59
2023-01-13T21:05:36.262Z,8.59
2023-01-13T21:08:02.776Z,8.58
2023-01-13T21:10:29.368Z,8.58
2023-01-13T21:12:55.935Z,8.56
2023-01-13T21:15:22.569Z,8.53
2023-01-13T21:17:51.269Z,8.50
2023-01-13T21:20:18.086Z,8.48
2023-01-13T21:22:47.533Z,8.44
2023-01-13T21:25:15.242Z,8.42
2023-01-13T21:27:42.213Z,8.41
2023-01-13T21:30:09.921Z,8.36
2023-01-13T21:32:36.452Z,8.34
2023-01-13T21:35:03.182Z,8.35
2023-01-13T21:37:29.675Z,8.33
2023-01-13T21:39:57.632Z,8.33
2023-01-13T21:42:24.159Z,8.33
2023-01-13T21:44:50.663Z,8.33
2023-01-13T21:47:18.874Z,8.33
2023-01-13T21:49:45.403Z,8.35
2023-01-13T21:52:12.950Z,8.36
2023-01-13T21:54:39.901Z,8.37
2023-01-13T21:57:07.801Z,8.35
2023-01-13T21:59:34.322Z,8.36
2023-01-13T22:02:24.111Z,8.36
2023-01-13T22:04:47.393Z,8.37
2023-01-13T22:07:14.176Z,8.37
2023-01-13T22:09:40.717Z,8.37
2023-01-13T22:12:08.610Z,8.37
2023-01-13T22:14:35.189Z,8.39
2023-01-13T22:17:01.702Z,8.39
2023-01-13T22:19:28.261Z,8.40
2023-01-13T22:21:54.904Z,8.39
2023-01-13T22:24:21.686Z,8.38
2023-01-13T22:26:48.235Z,8.36
2023-01-13T22:29:16.367Z,8.32
2023-01-13T22:31:42.947Z,8.31
2023-01-13T22:34:12.095Z,8.31
2023-01-13T22:36:38.659Z,8.30
2023-01-13T22:39:05.924Z,8.30
2023-01-13T22:41:32.416Z,8.29
2023-01-13T22:43:58.939Z,8.30
2023-01-13T22:46:26.817Z,8.28
2023-01-13T22:48:53.365Z,8.28
2023-01-13T22:51:19.874Z,8.27
2023-01-13T22:53:46.423Z,8.28
2023-01-13T22:56:17.179Z,8.25
2023-01-13T22:58:44.107Z,8.23
2023-01-13T23:01:13.815Z,8.21
2023-01-13T23:03:42.320Z,8.19
2023-01-13T23:06:09.086Z,8.17
2023-01-13T23:08:35.988Z,8.16
2023-01-13T23:11:03.421Z,8.15
2023-01-13T23:13:30.239Z,8.15
2023-01-13T23:16:00.667Z,8.16
2023-01-13T23:18:27.209Z,8.14
2023-01-13T23:20:55.250Z,8.15
2023-01-13T23:23:21.793Z,8.13
2023-01-13T23:25:49.240Z,8.10
2023-01-13T23:28:15.708Z,8.08
2023-01-13T23:30:42.407Z,8.07
2023-01-13T23:33:08.971Z,8.06
2023-01-13T23:35:35.455Z,8.04
2023-01-13T23:38:03.576Z,8.03
2023-01-13T23:40:30.138Z,8.02
2023-01-13T23:42:56.958Z,8.01
2023-01-13T23:45:23.548Z,8.00
2023-01-13T23:47:50.201Z,8.00
2023-01-13T23:50:17.152Z,7.98
2023-01-13T23:52:43.813Z,7.97
2023-01-13T23:55:11.709Z,7.97
2023-01-13T23:57:38.310Z,7.95
